Time;durP1;ratioP1;P1;durP2;ratioP2;P2;SDS_P1;SDS_P2;PMS_P1;PMS_P2;Temp;Humidity;BMP_temperature;BMP_pressure;BME280_temperature;BME280_humidity;BME280_pressure;Samples;Min_cycle;Max_cycle;Signal;HPM_P1;HPM_P2
2022/03/31 00:01:14;;;;;;;3.83;1.08;;;2.30;99.90;;;;;;5099669;28;20053;-91
2022/03/31 00:03:40;;;;;;;4.55;0.95;;;2.30;99.90;;;;;;5116009;28;20035;-90
2022/03/31 00:06:06;;;;;;;5.88;1.25;;;2.30;99.90;;;;;;5116489;28;20122;-91
2022/03/31 00:08:31;;;;;;;3.08;0.98;;;2.30;99.90;;;;;;5116292;28;20050;-91
2022/03/31 00:10:57;;;;;;;3.50;1.10;;;2.20;99.90;;;;;;5120194;28;20039;-91
2022/03/31 00:13:25;;;;;;;3.33;1.20;;;2.20;99.90;;;;;;5117876;28;20043;-91
2022/03/31 00:15:53;;;;;;;3.30;1.20;;;2.20;99.90;;;;;;5116312;28;20055;-91
2022/03/31 00:18:19;;;;;;;2.83;0.90;;;2.20;99.90;;;;;;5116403;28;20043;-91
2022/03/31 00:20:45;;;;;;;2.72;1.20;;;2.20;99.90;;;;;;5116472;28;20480;-91
2022/03/31 00:23:10;;;;;;;4.43;1.10;;;2.20;99.90;;;;;;5117076;28;20050;-90
2022/03/31 00:25:36;;;;;;;3.97;1.17;;;2.30;99.90;;;;;;5116048;28;20500;-91
2022/03/31 00:28:03;;;;;;;5.05;1.30;;;2.30;99.90;;;;;;5116310;28;20456;-90
2022/03/31 00:30:29;;;;;;;5.32;1.15;;;2.30;99.90;;;;;;5099299;28;20043;-91
2022/03/31 00:32:55;;;;;;;3.10;1.08;;;2.30;99.90;;;;;;5116281;28;20043;-91
2022/03/31 00:35:21;;;;;;;6.38;1.30;;;2.30;99.90;;;;;;5116346;28;20385;-90
2022/03/31 00:37:47;;;;;;;3.05;1.05;;;2.20;99.90;;;;;;5116421;28;20051;-91
2022/03/31 00:40:15;;;;;;;4.72;1.17;;;2.30;99.90;;;;;;5116184;28;20043;-90
2022/03/31 00:42:47;;;;;;;6.22;1.20;;;2.20;99.90;;;;;;5099054;28;20045;-91
2022/03/31 00:45:17;;;;;;;3.60;1.10;;;2.20;99.90;;;;;;5115795;28;20047;-90
2022/03/31 00:47:47;;;;;;;3.97;1.20;;;2.10;99.90;;;;;;5115883;28;20558;-90
2022/03/31 00:50:13;;;;;;;5.30;1.45;;;2.10;99.90;;;;;;5115983;28;20046;-90
2022/03/31 00:52:40;;;;;;;5.53;1.30;;;2.10;99.90;;;;;;5117854;28;20381;-91
2022/03/31 00:55:09;;;;;;;5.45;1.40;;;2.10;99.90;;;;;;5134838;28;20043;-91
2022/03/31 00:57:35;;;;;;;5.32;1.23;;;2.10;99.90;;;;;;5117088;28;20047;-90
2022/03/31 01:00:03;;;;;;;5.18;1.20;;;2.20;99.90;;;;;;5134641;28;20044;-90
2022/03/31 01:02:32;;;;;;;5.07;1.27;;;2.20;99.90;;;;;;5098948;28;20050;-90
2022/03/31 01:05:02;;;;;;;7.20;1.45;;;2.20;99.90;;;;;;5116165;27;20039;-90
2022/03/31 01:07:28;;;;;;;4.10;1.50;;;2.20;99.90;;;;;;5119602;27;20043;-90
2022/03/31 01:09:56;;;;;;;3.95;1.25;;;2.20;99.90;;;;;;5119387;27;20101;-90
2022/03/31 01:12:22;;;;;;;4.97;1.40;;;2.20;99.90;;;;;;5119354;27;20043;-91
2022/03/31 01:15:07;;;;;;;5.30;1.35;;;2.30;99.90;;;;;;5119297;27;20183;-91
2022/03/31 01:17:34;;;;;;;6.37;1.57;;;2.30;99.90;;;;;;5102457;27;20039;-91
2022/03/31 01:20:00;;;;;;;5.82;1.42;;;2.30;99.90;;;;;;5102039;27;20296;-91
2022/03/31 01:22:28;;;;;;;4.05;1.30;;;2.30;99.90;;;;;;5119161;27;20088;-91
2022/03/31 01:24:54;;;;;;;7.15;1.70;;;2.30;99.90;;;;;;5137783;27;20392;-90
2022/03/31 01:27:20;;;;;;;5.07;1.23;;;2.40;99.90;;;;;;5119379;27;20054;-90
2022/03/31 01:29:45;;;;;;;8.48;1.30;;;2.40;99.90;;;;;;5102147;27;20050;-91
2022/03/31 01:32:11;;;;;;;6.63;1.40;;;2.40;99.90;;;;;;5119305;27;20051;-91
2022/03/31 01:34:37;;;;;;;6.22;1.60;;;3.30;99.90;;;;;;5102135;27;20034;-90
2022/03/31 01:37:04;;;;;;;4.55;1.20;;;2.40;99.90;;;;;;5119430;27;20054;-90
2022/03/31 01:39:30;;;;;;;5.18;1.20;;;3.10;99.90;;;;;;5119305;27;20469;-90
2022/03/31 01:41:55;;;;;;;3.55;1.10;;;2.40;99.90;;;;;;5119571;27;20047;-90
2022/03/31 01:44:21;;;;;;;3.08;1.30;;;2.40;99.90;;;;;;5137806;27;20401;-91
2022/03/31 01:46:48;;;;;;;5.32;1.40;;;2.40;99.90;;;;;;5102091;27;20049;-90
2022/03/31 01:49:15;;;;;;;3.60;1.40;;;2.40;99.90;;;;;;5119160;27;20101;-90
2022/03/31 01:51:41;;;;;;;6.00;1.40;;;2.40;99.90;;;;;;5137772;27;20043;-90
2022/03/31 01:54:07;;;;;;;3.88;1.40;;;2.40;99.90;;;;;;5137747;27;20397;-91
2022/03/31 01:56:32;;;;;;;4.53;1.27;;;2.40;99.90;;;;;;5119611;27;20039;-91
2022/03/31 01:58:58;;;;;;;4.47;1.23;;;2.40;99.90;;;;;;5118772;27;20051;-89
2022/03/31 02:01:24;;;;;;;3.67;1.23;;;2.40;99.90;;;;;;5137702;27;20054;-91
2022/03/31 02:03:49;;;;;;;4.30;1.40;;;2.40;99.90;;;;;;5118940;27;20039;-90
2022/03/31 02:06:15;;;;;;;4.25;1.38;;;2.40;99.90;;;;;;5118928;27;20385;-90
2022/03/31 02:08:40;;;;;;;6.45;1.50;;;2.40;99.90;;;;;;5101725;27;20035;-90
2022/03/31 02:11:07;;;;;;;7.28;1.30;;;2.50;99.90;;;;;;5137259;27;20035;-91
2022/03/31 02:13:34;;;;;;;5.32;1.50;;;2.50;99.90;;;;;;5109154;27;20092;-90
2022/03/31 02:16:00;;;;;;;4.22;1.60;;;2.50;99.90;;;;;;5106764;27;20092;-89
2022/03/31 02:18:25;;;;;;;3.60;1.30;;;2.50;99.90;;;;;;5118295;27;20031;-90
2022/03/31 02:20:51;;;;;;;5.30;1.35;;;2.40;99.90;;;;;;5117987;27;20035;-91
2022/03/31 02:23:17;;;;;;;2.83;1.35;;;2.40;99.90;;;;;;5118339;27;20170;-90
2022/03/31 02:25:43;;;;;;;5.45;1.73;;;2.40;99.90;;;;;;5118029;27;20059;-90
2022/03/31 02:28:10;;;;;;;5.05;1.42;;;2.40;99.90;;;;;;5117946;27;20035;-90
2022/03/31 02:30:37;;;;;;;4.25;1.65;;;2.40;99.90;;;;;;5118212;27;20134;-91
2022/03/31 02:33:06;;;;;;;6.63;1.50;;;2.80;99.90;;;;;;5118481;27;20054;-91
2022/03/31 02:35:32;;;;;;;5.97;1.55;;;2.40;99.90;;;;;;5117655;27;20092;-91
2022/03/31 02:37:57;;;;;;;6.40;2.03;;;2.50;99.90;;;;;;5118067;27;20050;-90
2022/03/31 02:40:23;;;;;;;3.30;1.42;;;2.50;99.90;;;;;;5117868;27;20035;-91
2022/03/31 02:42:49;;;;;;;7.03;1.90;;;2.50;99.90;;;;;;5136512;27;20384;-90
2022/03/31 02:45:16;;;;;;;4.38;1.60;;;2.50;99.90;;;;;;5117462;27;20060;-90
2022/03/31 02:47:45;;;;;;;6.53;1.63;;;2.50;99.90;;;;;;5134247;27;20041;-90
2022/03/31 02:50:12;;;;;;;5.55;2.22;;;2.50;99.90;;;;;;5143274;27;20043;-86
2022/03/31 02:55:25;;;;;;;5.35;1.80;;;2.50;99.90;;;;;;5117590;27;20051;-90
2022/03/31 02:57:52;;;;;;;6.15;1.77;;;2.50;99.90;;;;;;5118135;27;20042;-90
2022/03/31 03:00:19;;;;;;;6.53;1.67;;;2.40;99.90;;;;;;5100870;27;20054;-90
2022/03/31 03:02:50;;;;;;;6.25;1.65;;;2.40;99.90;;;;;;5117668;27;20047;-90
2022/03/31 03:05:16;;;;;;;6.63;1.80;;;2.50;99.90;;;;;;5136035;27;20480;-90
2022/03/31 03:07:42;;;;;;;5.47;1.70;;;2.50;99.90;;;;;;5136692;27;20080;-90
2022/03/31 03:10:08;;;;;;;3.90;1.58;;;2.50;99.90;;;;;;5100610;27;20095;-89
2022/03/31 03:12:33;;;;;;;6.18;1.80;;;2.40;99.90;;;;;;5117712;27;20469;-90
2022/03/31 03:14:59;;;;;;;3.70;1.65;;;2.40;99.90;;;;;;5117585;27;20043;-90
2022/03/31 03:17:25;;;;;;;6.47;1.98;;;2.40;99.90;;;;;;5100248;27;20130;-90
2022/03/31 03:19:50;;;;;;;4.45;1.75;;;2.40;99.90;;;;;;5117049;27;20046;-90
2022/03/31 03:22:16;;;;;;;4.03;1.63;;;2.50;99.90;;;;;;5117197;27;20477;-90
2022/03/31 03:24:41;;;;;;;4.93;2.05;;;2.50;99.90;;;;;;5117107;27;20489;-90
2022/03/31 03:27:07;;;;;;;6.00;1.73;;;2.50;99.90;;;;;;5116673;27;20055;-88
2022/03/31 03:29:33;;;;;;;4.30;1.80;;;2.50;99.90;;;;;;5116908;27;20051;-91
2022/03/31 03:31:58;;;;;;;5.18;1.50;;;2.50;99.90;;;;;;5117104;27;20473;-90
2022/03/31 03:34:25;;;;;;;4.38;1.70;;;2.50;99.90;;;;;;5116956;27;20092;-90
2022/03/31 03:36:51;;;;;;;4.97;1.80;;;2.50;99.90;;;;;;5116778;27;20092;-90
2022/03/31 03:39:16;;;;;;;6.35;2.10;;;2.90;99.90;;;;;;5116567;27;20224;-91
2022/03/31 03:41:42;;;;;;;6.72;2.30;;;2.50;99.90;;;;;;5116589;27;20039;-91
2022/03/31 03:44:08;;;;;;;7.90;2.40;;;2.50;99.90;;;;;;5116450;27;20068;-90
2022/03/31 03:46:34;;;;;;;7.20;2.90;;;2.50;99.90;;;;;;5116915;27;20054;-91
2022/03/31 03:49:00;;;;;;;6.47;2.55;;;2.50;99.90;;;;;;5135014;27;20124;-91
2022/03/31 03:51:26;;;;;;;5.43;2.53;;;2.40;99.90;;;;;;5116587;28;20047;-90
2022/03/31 03:53:53;;;;;;;5.85;2.50;;;2.40;99.90;;;;;;5116292;27;20533;-90
2022/03/31 03:56:19;;;;;;;9.77;3.60;;;2.40;99.90;;;;;;5116264;28;20047;-90
2022/03/31 03:58:45;;;;;;;10.52;3.28;;;2.40;99.90;;;;;;5116714;28;20392;-90
2022/03/31 04:01:11;;;;;;;7.88;3.13;;;2.30;99.90;;;;;;5116360;28;20129;-89
2022/03/31 04:03:37;;;;;;;7.80;2.75;;;2.40;99.90;;;;;;5135046;28;20139;-90
2022/03/31 04:06:03;;;;;;;5.93;2.58;;;2.20;99.90;;;;;;5099517;28;20130;-91
2022/03/31 04:08:28;;;;;;;7.20;2.47;;;2.60;99.90;;;;;;5116308;28;20075;-90
2022/03/31 04:10:54;;;;;;;6.57;2.50;;;2.10;99.90;;;;;;5116530;28;20035;-88
2022/03/31 04:13:20;;;;;;;6.10;2.40;;;2.20;99.90;;;;;;5119149;28;20485;-91
2022/03/31 04:15:46;;;;;;;8.05;2.83;;;2.10;99.90;;;;;;5108035;28;20039;-90
2022/03/31 04:18:12;;;;;;;5.13;2.63;;;2.10;99.90;;;;;;5114720;28;20074;-91
2022/03/31 04:20:38;;;;;;;7.30;3.28;;;2.10;99.90;;;;;;5117856;28;20121;-91
2022/03/31 04:23:03;;;;;;;6.85;3.00;;;2.10;99.90;;;;;;5122660;28;20042;-89
2022/03/31 04:25:29;;;;;;;8.70;3.63;;;2.10;99.90;;;;;;5129270;28;20055;-88
2022/03/31 04:27:55;;;;;;;7.65;3.55;;;2.10;99.90;;;;;;5103790;28;20086;-89
2022/03/31 04:30:21;;;;;;;7.10;3.65;;;2.10;99.90;;;;;;5117613;28;20388;-91
2022/03/31 04:32:48;;;;;;;5.70;2.97;;;2.10;99.90;;;;;;5117274;28;20055;-90
2022/03/31 04:35:14;;;;;;;9.52;3.58;;;2.10;99.90;;;;;;5118246;28;20076;-89
2022/03/31 04:37:40;;;;;;;6.50;3.10;;;2.10;99.90;;;;;;5135658;28;20054;-89
2022/03/31 04:40:08;;;;;;;5.88;3.20;;;2.20;99.90;;;;;;5137259;27;20084;-89
2022/03/31 04:42:34;;;;;;;7.32;3.47;;;2.10;99.90;;;;;;5119947;27;20046;-91
2022/03/31 04:45:02;;;;;;;7.95;3.72;;;2.10;99.90;;;;;;5120092;27;20138;-90
2022/03/31 04:47:31;;;;;;;7.03;3.80;;;2.10;99.90;;;;;;5120475;27;20058;-88
2022/03/31 04:49:57;;;;;;;9.40;3.97;;;2.20;99.90;;;;;;5104860;27;20039;-91
2022/03/31 04:52:24;;;;;;;8.48;4.32;;;2.20;99.90;;;;;;5120372;27;20544;-90
2022/03/31 04:54:50;;;;;;;7.90;4.38;;;2.20;99.90;;;;;;5138454;27;20070;-90
2022/03/31 04:57:21;;;;;;;7.45;3.80;;;2.20;99.90;;;;;;5120683;27;20039;-90
2022/03/31 04:59:47;;;;;;;6.78;3.75;;;2.20;99.90;;;;;;5122919;27;20103;-90
2022/03/31 05:02:13;;;;;;;7.40;4.03;;;2.10;99.90;;;;;;5120780;27;20047;-89
2022/03/31 05:04:39;;;;;;;7.45;4.00;;;2.20;99.90;;;;;;5119722;27;20522;-90
2022/03/31 05:07:06;;;;;;;7.10;4.43;;;2.20;99.90;;;;;;5138295;27;20047;-87
2022/03/31 05:09:31;;;;;;;6.32;4.28;;;2.20;99.90;;;;;;5119574;27;20122;-89
2022/03/31 05:11:57;;;;;;;8.43;4.40;;;2.20;99.90;;;;;;5119485;27;20126;-90
2022/03/31 05:14:23;;;;;;;7.30;4.50;;;2.20;99.90;;;;;;5119256;27;20051;-90
2022/03/31 05:16:49;;;;;;;8.63;4.82;;;2.20;99.90;;;;;;5119888;27;20051;-90
2022/03/31 05:19:15;;;;;;;8.23;5.22;;;2.30;99.90;;;;;;5102194;27;20055;-90
2022/03/31 05:21:40;;;;;;;9.00;5.22;;;2.30;99.90;;;;;;5119248;27;20076;-91
2022/03/31 05:24:06;;;;;;;9.98;6.00;;;2.30;99.90;;;;;;5119112;27;20050;-91
2022/03/31 05:26:32;;;;;;;10.80;6.30;;;2.20;99.90;;;;;;5120196;27;20058;-89
2022/03/31 05:28:58;;;;;;;9.48;5.50;;;2.20;99.90;;;;;;5138155;27;20043;-90
2022/03/31 05:31:23;;;;;;;10.80;6.38;;;2.20;99.90;;;;;;5119387;27;20051;-91
2022/03/31 05:33:49;;;;;;;10.07;6.20;;;2.20;99.90;;;;;;5101769;27;20047;-90
2022/03/31 05:36:15;;;;;;;11.57;6.90;;;2.20;99.90;;;;;;5119251;27;20054;-88
2022/03/31 05:38:40;;;;;;;11.25;6.50;;;2.30;99.90;;;;;;5121604;27;20431;-86
2022/03/31 05:41:06;;;;;;;12.38;7.15;;;2.20;99.90;;;;;;5119438;27;20047;-88
2022/03/31 05:43:32;;;;;;;13.35;7.40;;;2.20;99.90;;;;;;5119478;27;20463;-89
2022/03/31 05:45:58;;;;;;;13.50;7.78;;;2.20;99.90;;;;;;5119863;27;20054;-90
2022/03/31 05:48:27;;;;;;;14.73;8.45;;;2.20;99.90;;;;;;5119365;27;20047;-90
2022/03/31 05:50:53;;;;;;;16.65;8.77;;;2.10;99.90;;;;;;5137027;27;20043;-87
2022/03/31 05:53:19;;;;;;;17.02;9.05;;;2.20;99.90;;;;;;5137956;27;20039;-87
2022/03/31 05:55:45;;;;;;;16.95;9.27;;;2.10;99.90;;;;;;5119350;27;20035;-88
2022/03/31 05:58:11;;;;;;;14.73;8.02;;;2.20;99.90;;;;;;5101888;27;20043;-91
2022/03/31 06:00:36;;;;;;;14.32;7.95;;;2.20;99.90;;;;;;5137160;27;20393;-90
2022/03/31 06:03:02;;;;;;;14.88;8.40;;;2.30;99.90;;;;;;5118354;27;20459;-90
2022/03/31 06:05:28;;;;;;;14.60;7.97;;;2.30;99.90;;;;;;5137735;27;20035;-90
2022/03/31 06:07:53;;;;;;;11.82;6.70;;;2.20;99.90;;;;;;5119021;27;20036;-89
2022/03/31 06:10:22;;;;;;;11.70;6.70;;;2.20;99.90;;;;;;5118771;27;20035;-90
2022/03/31 06:12:48;;;;;;;12.90;7.30;;;2.20;99.90;;;;;;5118483;27;20130;-90
2022/03/31 06:15:15;;;;;;;12.60;6.90;;;2.30;99.90;;;;;;5118655;27;20134;-90
2022/03/31 06:17:42;;;;;;;12.00;6.53;;;2.30;99.90;;;;;;5138097;27;20047;-90
2022/03/31 06:20:09;;;;;;;11.45;6.22;;;2.20;99.90;;;;;;5102016;27;20058;-90
2022/03/31 06:22:35;;;;;;;9.43;5.90;;;2.30;99.90;;;;;;5118782;27;20045;-90
2022/03/31 06:25:01;;;;;;;9.35;5.95;;;2.40;99.90;;;;;;5118380;27;20074;-91
2022/03/31 06:27:27;;;;;;;9.63;6.05;;;2.40;99.90;;;;;;5118164;27;20050;-91
2022/03/31 06:29:53;;;;;;;9.57;5.68;;;2.40;99.90;;;;;;5101687;27;20077;-91
2022/03/31 06:32:20;;;;;;;11.25;6.05;;;2.50;99.90;;;;;;5118076;27;20477;-91
2022/03/31 06:34:46;;;;;;;10.23;5.85;;;2.40;99.90;;;;;;5136269;27;20047;-91
2022/03/31 06:37:13;;;;;;;9.32;5.60;;;2.60;99.90;;;;;;5118087;27;20058;-91
2022/03/31 06:39:39;;;;;;;11.52;5.90;;;2.50;99.90;;;;;;5104256;27;20050;-91
2022/03/31 06:42:05;;;;;;;10.90;6.30;;;2.70;99.90;;;;;;5136993;27;20530;-90
2022/03/31 06:44:31;;;;;;;10.30;6.05;;;2.60;99.90;;;;;;5117751;27;20039;-91
2022/03/31 06:46:58;;;;;;;11.27;6.85;;;2.60;99.90;;;;;;5118424;27;20051;-91
2022/03/31 06:49:26;;;;;;;10.90;6.45;;;2.70;99.90;;;;;;5100483;27;20046;-90
2022/03/31 06:51:52;;;;;;;11.20;6.65;;;2.70;99.90;;;;;;5117633;27;20043;-91
2022/03/31 06:54:20;;;;;;;12.23;7.18;;;2.80;99.90;;;;;;5117725;27;20069;-91
2022/03/31 06:56:47;;;;;;;13.02;6.90;;;2.80;99.90;;;;;;5117746;27;20500;-90
2022/03/31 06:59:13;;;;;;;13.20;7.10;;;2.80;99.90;;;;;;5120611;27;20047;-91
2022/03/31 07:01:38;;;;;;;12.85;6.95;;;2.80;99.90;;;;;;5137097;27;20050;-90
2022/03/31 07:04:06;;;;;;;11.15;6.63;;;2.90;99.90;;;;;;5117834;27;20043;-91
2022/03/31 07:06:33;;;;;;;11.05;7.13;;;2.90;99.90;;;;;;5118287;27;20047;-91
2022/03/31 07:08:58;;;;;;;9.77;6.10;;;2.90;99.90;;;;;;5117749;27;20091;-90
2022/03/31 07:11:24;;;;;;;9.80;5.95;;;2.90;99.90;;;;;;5117972;27;20493;-91
2022/03/31 07:13:50;;;;;;;11.02;6.07;;;2.90;99.90;;;;;;5117875;27;20125;-90
2022/03/31 07:16:16;;;;;;;9.68;6.18;;;2.90;99.90;;;;;;5117621;27;20130;-90
2022/03/31 07:18:42;;;;;;;9.02;5.88;;;3.60;99.90;;;;;;5117830;27;20118;-91
2022/03/31 07:21:08;;;;;;;9.68;6.28;;;3.10;99.90;;;;;;5136859;27;20565;-90
2022/03/31 07:23:34;;;;;;;9.77;5.40;;;3.00;99.90;;;;;;5117298;27;20126;-90
2022/03/31 07:26:00;;;;;;;9.38;6.10;;;3.60;99.90;;;;;;5117125;27;20051;-89
2022/03/31 07:28:25;;;;;;;8.52;5.72;;;3.00;99.90;;;;;;5100433;27;20389;-88
2022/03/31 07:30:53;;;;;;;10.30;6.10;;;3.10;99.90;;;;;;5117036;27;20099;-89
2022/03/31 07:33:20;;;;;;;9.57;6.07;;;3.30;99.90;;;;;;5116967;28;20039;-88
2022/03/31 07:35:47;;;;;;;10.55;6.68;;;3.00;99.90;;;;;;5099856;27;20039;-89
2022/03/31 07:38:14;;;;;;;10.80;6.50;;;3.20;99.90;;;;;;5116724;27;20103;-89
2022/03/31 07:40:40;;;;;;;9.48;6.07;;;3.30;99.90;;;;;;5116513;27;20122;-89
2022/03/31 07:43:07;;;;;;;10.10;6.63;;;3.30;99.90;;;;;;5116863;27;20043;-88
2022/03/31 07:45:36;;;;;;;10.55;6.65;;;3.40;99.90;;;;;;5099266;28;20055;-89
2022/03/31 07:48:09;;;;;;;9.88;6.50;;;3.40;99.90;;;;;;5116347;28;20076;-89
2022/03/31 07:50:35;;;;;;;9.02;6.43;;;3.40;99.90;;;;;;5116878;28;20443;-89
2022/03/31 07:53:01;;;;;;;10.70;6.90;;;3.50;99.90;;;;;;5099857;27;20060;-88
2022/03/31 07:55:27;;;;;;;9.23;6.07;;;3.40;99.90;;;;;;5099953;27;20050;-89
2022/03/31 07:57:53;;;;;;;11.07;6.55;;;3.40;99.90;;;;;;5116810;27;20046;-89
2022/03/31 08:00:20;;;;;;;10.43;6.50;;;3.40;99.90;;;;;;5100076;28;20047;-90
2022/03/31 08:02:52;;;;;;;10.68;6.55;;;3.40;99.90;;;;;;5116825;28;20092;-90
2022/03/31 08:05:23;;;;;;;10.55;6.88;;;3.80;99.90;;;;;;5099337;28;20488;-91
2022/03/31 08:07:49;;;;;;;10.63;6.57;;;3.50;99.90;;;;;;5099251;28;20057;-91
2022/03/31 08:10:17;;;;;;;11.73;6.43;;;3.40;99.90;;;;;;5099255;28;20043;-91
2022/03/31 08:12:44;;;;;;;10.55;6.80;;;3.40;99.90;;;;;;5099784;28;20035;-90
2022/03/31 08:15:12;;;;;;;9.00;6.22;;;3.40;99.90;;;;;;5119686;27;20121;-90
2022/03/31 08:17:41;;;;;;;10.32;6.57;;;3.40;99.90;;;;;;5126460;27;20107;-90
2022/03/31 08:20:09;;;;;;;10.55;6.50;;;3.40;99.90;;;;;;5122180;27;20050;-91
2022/03/31 08:22:36;;;;;;;9.52;6.50;;;3.40;99.90;;;;;;5120379;27;20043;-90
2022/03/31 08:25:03;;;;;;;9.68;6.53;;;3.40;99.90;;;;;;5120221;27;20481;-90
2022/03/31 08:27:30;;;;;;;9.45;6.38;;;3.50;99.90;;;;;;5120054;27;20047;-90
2022/03/31 08:29:55;;;;;;;10.48;6.30;;;3.50;99.90;;;;;;5120612;27;20039;-90
2022/03/31 08:32:21;;;;;;;10.30;6.60;;;3.40;99.90;;;;;;5120343;27;20047;-89
2022/03/31 08:34:50;;;;;;;8.82;5.93;;;3.50;99.90;;;;;;5119938;27;20184;-90
2022/03/31 08:37:16;;;;;;;8.18;5.93;;;3.50;99.90;;;;;;5119956;27;20572;-91
2022/03/31 08:39:42;;;;;;;8.57;6.00;;;3.50;99.90;;;;;;5102918;27;20077;-91
2022/03/31 08:42:08;;;;;;;8.65;5.85;;;4.40;99.90;;;;;;5119960;27;20366;-89
2022/03/31 08:44:35;;;;;;;8.85;6.03;;;3.50;99.90;;;;;;5120096;27;20035;-89
2022/03/31 08:47:01;;;;;;;9.07;6.32;;;3.50;99.90;;;;;;5120633;27;20059;-85
2022/03/31 08:49:29;;;;;;;8.95;6.30;;;3.40;99.90;;;;;;5128983;27;20023;-91
2022/03/31 08:51:55;;;;;;;8.95;6.30;;;3.40;99.90;;;;;;5131804;27;20054;-87
2022/03/31 08:54:21;;;;;;;9.23;6.10;;;3.50;99.90;;;;;;5125756;27;20031;-88
2022/03/31 08:56:47;;;;;;;9.48;6.43;;;3.40;99.90;;;;;;5126768;27;20116;-87
2022/03/31 08:59:13;;;;;;;10.38;6.80;;;3.50;99.90;;;;;;5126446;27;20477;-87
2022/03/31 09:01:39;;;;;;;9.75;6.93;;;3.50;99.90;;;;;;5125753;27;20039;-93
2022/03/31 09:04:06;;;;;;;9.80;6.10;;;3.40;99.90;;;;;;5106433;27;20167;-85
2022/03/31 09:11:45;;;;;;;11.27;6.80;;;3.50;99.90;;;;;;4657472;22;20056;-86
2022/03/31 09:14:10;;;;;;;9.52;7.10;;;3.50;99.90;;;;;;5145099;22;20055;-89
2022/03/31 09:16:41;;;;;;;10.60;6.70;;;3.60;99.90;;;;;;5121740;27;20386;-91
2022/03/31 09:19:11;;;;;;;9.10;6.50;;;3.40;99.90;;;;;;5106962;22;20414;-88
2022/03/31 09:24:36;;;;;;;8.50;6.00;;;3.50;99.90;;;;;;4549899;22;20145;-83
2022/03/31 09:27:04;;;;;;;9.15;6.18;;;5.80;99.90;;;;;;4978706;28;20089;-79
2022/03/31 09:29:31;;;;;;;8.73;6.22;;;3.40;99.90;;;;;;4980055;28;20050;-80
2022/03/31 09:32:06;;;;;;;9.88;6.45;;;3.60;99.90;;;;;;4998835;28;20038;-80
2022/03/31 09:34:47;;;;;;;7.95;5.30;;;3.70;99.90;;;;;;4999345;28;20603;-90
2022/03/31 09:37:13;;;;;;;7.70;5.53;;;3.70;99.90;;;;;;5000921;28;20066;-86
2022/03/31 09:39:40;;;;;;;8.10;5.45;;;5.00;99.90;;;;;;4980754;28;20085;-81
2022/03/31 09:42:14;;;;;;;7.35;5.43;;;4.10;99.90;;;;;;4980736;28;20496;-86
2022/03/31 09:51:21;;;;;;;6.90;5.03;;;3.90;99.90;;;;;;4804065;23;20406;-84
2022/03/31 09:56:13;;;;;;;6.90;4.47;;;3.70;99.90;;;;;;4947479;23;20525;-86
2022/03/31 09:58:42;;;;;;;7.28;4.63;;;3.70;99.90;;;;;;4927107;29;20060;-85
2022/03/31 10:01:07;;;;;;;7.18;5.00;;;3.80;99.90;;;;;;4948852;29;20394;-82
2022/03/31 10:03:34;;;;;;;6.50;4.07;;;3.70;99.90;;;;;;4941839;29;20051;-90
2022/03/31 10:09:22;;;;;;;7.03;4.47;;;3.70;99.90;;;;;;3516339;23;20111;-83
2022/03/31 10:11:55;;;;;;;6.35;4.03;;;3.70;99.90;;;;;;4952897;23;20081;-82
2022/03/31 10:14:59;;;;;;;6.88;4.35;;;3.70;99.90;;;;;;4948223;28;20058;-90
2022/03/31 10:17:30;;;;;;;6.70;4.25;;;3.60;99.90;;;;;;4949168;29;20044;-91
2022/03/31 10:25:13;;;;;;;9.05;5.25;;;3.50;99.90;;;;;;4927616;23;20063;-87
2022/03/31 10:27:41;;;;;;;10.55;6.03;;;3.30;99.90;;;;;;4918827;29;20044;-88
2022/03/31 10:30:11;;;;;;;11.02;5.78;;;4.90;99.90;;;;;;4919501;29;20062;-85
2022/03/31 10:32:37;;;;;;;10.07;5.65;;;3.50;99.90;;;;;;4903485;29;20055;-84
2022/03/31 10:35:04;;;;;;;9.68;5.30;;;3.50;99.90;;;;;;4903727;29;20495;-87
2022/03/31 10:37:37;;;;;;;9.68;5.25;;;3.50;99.90;;;;;;4903133;29;20135;-88
2022/03/31 10:40:08;;;;;;;8.88;5.28;;;3.50;99.90;;;;;;4904021;29;20088;-88
2022/03/31 10:42:33;;;;;;;8.98;5.13;;;3.00;99.90;;;;;;4903923;29;20448;-88
2022/03/31 10:45:14;;;;;;;8.52;4.93;;;3.70;99.90;;;;;;4919307;29;20048;-80
2022/03/31 10:47:43;;;;;;;8.68;5.20;;;4.10;99.90;;;;;;4903588;29;20048;-85
2022/03/31 10:50:25;;;;;;;9.20;5.15;;;3.70;99.90;;;;;;4918949;29;20479;-81
2022/03/31 10:53:03;;;;;;;8.43;4.97;;;3.10;99.90;;;;;;4919502;29;20473;-88
2022/03/31 10:55:47;;;;;;;8.30;4.60;;;3.40;99.90;;;;;;4919016;29;20052;-88
2022/03/31 10:58:25;;;;;;;6.80;3.90;;;3.40;99.90;;;;;;4918342;29;20044;-80
2022/03/31 11:00:52;;;;;;;6.47;4.20;;;3.60;99.90;;;;;;4902992;29;20052;-88
2022/03/31 11:05:44;;;;;;;6.40;4.10;;;3.20;99.90;;;;;;4963988;23;20426;-88
2022/03/31 11:08:10;;;;;;;6.40;3.85;;;3.20;99.90;;;;;;4955577;29;20520;-81
2022/03/31 11:10:43;;;;;;;6.40;4.00;;;3.10;99.90;;;;;;4944287;29;20035;-81
2022/03/31 11:13:09;;;;;;;6.45;4.25;;;3.10;99.90;;;;;;4931548;28;20047;-85
2022/03/31 11:15:35;;;;;;;6.53;4.05;;;3.90;99.90;;;;;;4959172;23;20453;-81
2022/03/31 11:18:01;;;;;;;7.05;4.30;;;2.90;99.90;;;;;;4940641;23;20075;-83
2022/03/31 11:20:27;;;;;;;7.63;4.13;;;2.90;99.90;;;;;;4949592;23;20050;-81
2022/03/31 11:23:08;;;;;;;6.95;4.40;;;2.90;99.90;;;;;;4948514;28;20055;-87
2022/03/31 11:25:35;;;;;;;6.47;4.13;;;2.90;99.90;;;;;;4960487;28;20427;-85
2022/03/31 11:28:12;;;;;;;7.63;5.00;;;3.90;99.90;;;;;;4967522;23;20402;-87
2022/03/31 11:30:39;;;;;;;6.60;4.05;;;2.80;99.90;;;;;;4956621;23;20517;-82
2022/03/31 11:33:09;;;;;;;7.50;4.60;;;2.80;99.90;;;;;;4923385;23;20051;-81
2022/03/31 11:35:35;;;;;;;8.43;5.00;;;2.70;99.90;;;;;;4944011;28;20050;-88
2022/03/31 11:38:09;;;;;;;8.07;4.88;;;2.80;99.90;;;;;;4944410;28;20406;-86
2022/03/31 11:40:37;;;;;;;7.88;4.70;;;4.10;99.90;;;;;;4943859;28;20046;-86
2022/03/31 11:43:05;;;;;;;7.03;4.55;;;3.20;99.90;;;;;;4944497;28;20050;-84
2022/03/31 11:45:34;;;;;;;7.60;4.65;;;2.70;99.90;;;;;;4943466;28;20058;-80
2022/03/31 11:48:04;;;;;;;7.50;4.53;;;2.50;99.90;;;;;;4943197;28;20058;-80
2022/03/31 11:50:33;;;;;;;8.63;5.25;;;3.20;99.90;;;;;;4966408;23;20585;-83
2022/03/31 11:53:18;;;;;;;7.55;4.43;;;2.50;99.90;;;;;;4943422;28;20046;-85
2022/03/31 11:56:04;;;;;;;6.60;4.25;;;2.40;99.90;;;;;;4944009;28;20073;-80
2022/03/31 11:58:33;;;;;;;8.88;4.43;;;2.30;99.90;;;;;;4943164;28;20482;-82
2022/03/31 12:01:00;;;;;;;7.75;4.65;;;2.20;99.90;;;;;;4943035;28;20077;-82
2022/03/31 12:03:36;;;;;;;6.75;4.72;;;3.50;99.90;;;;;;4958984;28;20043;-83
2022/03/31 12:06:04;;;;;;;7.10;4.50;;;2.20;99.90;;;;;;4943499;28;20053;-80
2022/03/31 12:08:35;;;;;;;6.00;4.10;;;2.20;99.90;;;;;;4943772;28;20051;-85
2022/03/31 12:11:01;;;;;;;5.80;4.20;;;3.10;99.90;;;;;;4943909;28;20046;-84
2022/03/31 12:13:28;;;;;;;6.55;4.45;;;2.00;99.90;;;;;;4944144;28;20082;-83
2022/03/31 12:16:05;;;;;;;7.13;4.65;;;3.60;99.90;;;;;;4959467;28;20097;-86
2022/03/31 12:18:31;;;;;;;7.03;4.95;;;1.90;99.90;;;;;;4951310;23;20042;-82
2022/03/31 12:21:03;;;;;;;6.47;4.45;;;1.80;99.90;;;;;;4945218;28;20097;-83
2022/03/31 12:23:29;;;;;;;6.35;4.40;;;1.70;99.90;;;;;;4943733;28;20082;-84
2022/03/31 12:25:55;;;;;;;6.97;4.82;;;1.60;99.90;;;;;;4944368;28;20047;-80
2022/03/31 12:28:25;;;;;;;6.47;4.38;;;1.50;99.90;;;;;;4950666;23;20078;-86
2022/03/31 12:30:56;;;;;;;7.40;4.93;;;1.40;99.90;;;;;;4967739;23;20050;-83
2022/03/31 12:33:26;;;;;;;7.05;4.57;;;1.40;99.90;;;;;;4944087;28;20109;-83
2022/03/31 12:36:00;;;;;;;6.63;4.57;;;1.30;99.90;;;;;;4958783;23;20076;-80
2022/03/31 12:38:50;;;;;;;7.40;4.90;;;1.20;99.90;;;;;;4958420;23;20406;-83
2022/03/31 12:41:34;;;;;;;6.50;4.53;;;1.20;99.90;;;;;;4957550;23;20089;-84
2022/03/31 12:44:16;;;;;;;7.70;4.97;;;1.20;99.90;;;;;;4950874;23;20457;-82
2022/03/31 12:46:52;;;;;;;7.65;4.75;;;1.20;99.90;;;;;;4951883;23;20054;-80
2022/03/31 12:49:20;;;;;;;7.95;4.78;;;1.20;99.90;;;;;;4963603;23;20079;-87
2022/03/31 12:51:57;;;;;;;8.45;4.85;;;2.70;99.90;;;;;;4931955;23;20146;-87
2022/03/31 12:54:38;;;;;;;6.70;4.40;;;1.10;99.90;;;;;;4940579;23;20054;-86
2022/03/31 12:57:19;;;;;;;7.25;4.60;;;1.10;99.90;;;;;;4957852;23;20418;-87
2022/03/31 13:00:09;;;;;;;7.45;4.75;;;1.10;99.90;;;;;;4926383;28;20051;-88
2022/03/31 13:02:36;;;;;;;8.05;4.93;;;1.10;99.90;;;;;;4961373;23;20062;-84
2022/03/31 13:05:04;;;;;;;7.95;4.95;;;2.10;99.90;;;;;;4955838;23;20055;-87
2022/03/31 13:07:30;;;;;;;7.47;4.40;;;1.00;99.90;;;;;;4949150;28;20051;-83
2022/03/31 13:09:57;;;;;;;7.50;4.38;;;2.30;99.90;;;;;;4980376;23;20101;-83
2022/03/31 13:12:31;;;;;;;6.80;4.47;;;1.00;99.90;;;;;;4966714;23;20051;-81
2022/03/31 13:14:58;;;;;;;6.80;4.47;;;1.00;99.90;;;;;;4949848;23;20050;-86
2022/03/31 13:17:25;;;;;;;6.22;4.40;;;1.00;99.90;;;;;;4979263;23;20062;-87
2022/03/31 13:19:51;;;;;;;7.20;4.43;;;0.90;99.90;;;;;;4942918;23;20055;-84
2022/03/31 13:22:29;;;;;;;7.68;5.03;;;1.00;99.90;;;;;;4966406;23;20136;-86
2022/03/31 13:24:56;;;;;;;7.32;4.70;;;0.90;99.90;;;;;;4962362;23;20114;-82
2022/03/31 13:27:23;;;;;;;7.30;4.75;;;0.90;99.90;;;;;;4969747;23;20057;-83
2022/03/31 13:29:50;;;;;;;8.43;4.28;;;0.80;99.90;;;;;;4951780;23;20043;-86